• Join FlightAware (Why Join?)
  • Login
  • US Flag 
05:08PM EDT


 

Airport Tracker/Info


-or-


 

Live Flight TrackerFlight Track Log ✈ UAL3740 ✈ 08-Sep-2013 ✈ KJAX - KORD

Flight Track Log - Related Links

Times and Time Zones

All times are in EDT time to prevent confusion due to time zone crossing. See the UAL3740 flight status page for this flight to view local times or setup timezone preferences in your user account.

Time Position Orientation Groundspeed Altitude Reporting Facility
EDT Latitude Longitude Course Direction KTS MPH feet Rate Location/Type
05:15PM 30.5675 -81.6500 24° Northeast 234 269 3,000  Level Jacksonville Center
05:16PM 30.6197 -81.6567 354° North 255 293 4,900 2,280 Climbing Jacksonville Center
05:17PM 30.6928 -81.6606 357° North 266 306 7,300 2,520 Climbing Jacksonville Center
05:18PM 30.7636 -81.6403 14° North 266 306 10,000 2,280 Climbing Jacksonville Center
05:19PM 30.8406 -81.6175 14° North 271 312 11,900 1,920 Climbing Jacksonville Center
05:20PM 30.9197 -81.5922 15° North 282 325 13,900 1,800 Climbing Jacksonville Center
05:21PM 31.0069 -81.5619 17° North 295 339 15,500 1,620 Climbing Jacksonville Center
05:22PM 31.0986 -81.5364 13° North 314 361 17,200 1,680 Climbing Jacksonville Center
05:23PM 31.1964 -81.5058 15° North 340 391 18,900 1,680 Climbing Jacksonville Center
05:24PM 31.2922 -81.4728 16° North 350 403 20,600 1,620 Climbing Jacksonville Center
05:25PM 31.4003 -81.4369 16° North 360 414 22,200 1,380 Climbing Jacksonville Center
05:26PM 31.5000 -81.4039 16° North 366 421 23,400 1,260 Climbing Jacksonville Center
05:27PM 31.6042 -81.3706 15° North 379 436 24,800 1,320 Climbing Jacksonville Center
05:28PM 31.7081 -81.3394 14° North 379 436 26,100 1,200 Climbing Jacksonville Center
05:29PM 31.8017 -81.3086 16° North 374 430 27,300 1,140 Climbing Jacksonville Center
05:30PM 31.9181 -81.2722 15° North 379 436 28,400 960 Climbing Jacksonville Center
05:31PM 32.0264 -81.2361 16° North 393 452 29,300 900 Climbing Jacksonville Center
05:32PM 32.1386 -81.2044 13° North 400 460 30,300 1,020 Climbing Jacksonville Center
05:33PM 32.2533 -81.1950 North 405 466 31,400 1,140 Climbing Jacksonville Center
05:34PM 32.3658 -81.1831 North 405 466 32,600 1,200 Climbing Jacksonville Center
05:35PM 32.4786 -81.1761 North 405 466 33,900 1,080 Climbing Jacksonville Center
05:36PM 32.5744 -81.1669 North 400 460 34,800 540 Climbing Jacksonville Center
05:37PM 32.6956 -81.1769 356° North 394 453 35,000 60 Climbing Jacksonville Center
05:38PM 32.8108 -81.2044 349° North 402 463 35,000  Level Jacksonville Center
05:39PM 32.9261 -81.2344 348° North 412 474 35,000 360 Level Jacksonville Center
05:40PM 33.0453 -81.2619 349° North 422 486 35,800 660 Climbing Jacksonville Center
05:41PM 33.1583 -81.2897 348° North 422 486 36,400 600 Climbing Jacksonville Center
05:42PM 33.2736 -81.3200 348° North 422 486 37,000 300 Climbing Jacksonville Center
05:43PM 33.3908 -81.3503 348° North 422 486 37,000  Level Jacksonville Center
05:44PM 33.4956 -81.3708 351° North 422 486 37,000  Level Jacksonville Center
05:45PM 33.6106 -81.3986 349° North 422 486 37,000  Level Jacksonville Center
05:46PM 33.7256 -81.4267 349° North 422 486 37,000  Level Jacksonville Center
05:47PM 33.8408 -81.4547 349° North 415 478 37,000  Level Jacksonville Center
05:48PM 33.9517 -81.4856 347° North 415 478 37,000 120 Level Jacksonville Center
05:50PM 34.2011 -81.5497 348° North 412 474 37,400 300 Climbing Atlanta Center
05:51PM 34.3247 -81.5789 349° North 412 474 38,000 300 Climbing Atlanta Center
05:52PM 34.4339 -81.6058 348° North 412 474 38,000  Level Atlanta Center
05:53PM 34.5472 -81.6353 348° North 412 474 38,000  Level Atlanta Center
05:54PM 34.6478 -81.6678 345° North 412 474 38,000  Level Atlanta Center
05:55PM 34.7569 -81.6950 348° North 412 474 38,000  Level Atlanta Center
05:56PM 34.8681 -81.7222 349° North 407 468 38,000  Level Atlanta Center
05:57PM 34.9814 -81.7522 348° North 407 468 38,000  Level Atlanta Center
05:58PM 35.1031 -81.7844 348° North 402 463 38,000  Level Atlanta Center
05:59PM 35.2119 -81.8119 348° North 402 463 38,000  Level Atlanta Center
06:00PM 35.3208 -81.8394 348° North 402 463 38,000  Level Atlanta Center
06:01PM 35.4319 -81.8672 348° North 402 463 38,000  Level Atlanta Center
06:02PM 35.5411 -81.8975 347° North 396 456 38,000  Level Atlanta Center
06:03PM 35.6500 -81.9253 348° North 396 456 38,000  Level Atlanta Center
06:04PM 35.7506 -81.9508 348° North 396 456 38,000  Level Atlanta Center
06:05PM 35.8575 -81.9789 348° North 396 456 38,000  Level Atlanta Center
06:06PM 35.9664 -82.0067 348° North 396 456 38,000  Level Atlanta Center
06:07PM 36.0753 -82.0350 348° North 391 450 38,000  Level Atlanta Center
06:08PM 36.1822 -82.0631 348° North 391 450 38,000  Level Atlanta Center
06:09PM 36.2889 -82.0889 349° North 386 444 38,000  Level Atlanta Center
06:10PM 36.3978 -82.1197 347° North 386 444 38,000  Level Atlanta Center
06:11PM 36.4947 -82.1872 331° Northwest 393 452 38,000  Level Atlanta Center
06:13PM 36.7072 -82.3858 323° Northwest 408 470 38,000  Level Indianapolis Center
06:14PM 36.7978 -82.4714 323° Northwest 410 472 38,000  Level Indianapolis Center
06:15PM 36.8869 -82.5556 323° Northwest 405 466 38,000  Level Indianapolis Center
06:16PM 36.9761 -82.6411 323° Northwest 406 467 38,000  Level Indianapolis Center
06:17PM 37.0803 -82.7422 322° Northwest 410 472 38,000  Level Indianapolis Center
06:18PM 37.1689 -82.8294 322° Northwest 409 471 38,000  Level Indianapolis Center
06:19PM 37.2581 -82.9164 322° Northwest 408 470 38,000  Level Indianapolis Center
06:21PM 37.3464 -83.0036 322° Northwest 405 466 38,000  Level Indianapolis Center
06:22PM 37.4356 -83.0914 322° Northwest 406 467 38,000  Level Indianapolis Center
06:23PM 37.5392 -83.1925 322° Northwest 404 465 38,000 -540 Level Indianapolis Center
06:24PM 37.6308 -83.2828 322° Northwest 412 474 37,000 -720 Descending Indianapolis Center
06:25PM 37.7244 -83.3761 322° Northwest 426 490 36,600 -540 Descending Indianapolis Center
06:26PM 37.8194 -83.4694 322° Northwest 431 496 36,000 -720 Descending Indianapolis Center
06:27PM 37.9131 -83.5633 322° Northwest 430 495 35,200 -1,020 Descending Indianapolis Center
06:28PM 38.0314 -83.6583 328° Northwest 431 496 34,000 -1,080 Descending Indianapolis Center
06:29PM 38.1294 -83.7353 328° Northwest 416 479 33,000 -540 Descending Indianapolis Center
06:30PM 38.2253 -83.8117 328° Northwest 408 470 33,000  Level Indianapolis Center
06:31PM 38.3208 -83.8869 328° Northwest 404 465 33,000 -300 Level Indianapolis Center
06:32PM 38.4192 -83.9656 328° Northwest 412 474 32,400 -540 Descending Indianapolis Center
06:33PM 38.5331 -84.0575 328° Northwest 414 476 32,000 -240 Descending Indianapolis Center
06:34PM 38.6303 -84.1347 328° Northwest 413 475 32,000  Level Indianapolis Center
06:35PM 38.7222 -84.2097 328° Northwest 413 475 32,000  Level Indianapolis Center
06:36PM 38.8186 -84.2881 328° Northwest 411 473 32,000  Level Indianapolis Center
06:37PM 38.9150 -84.3633 329° Northwest 407 468 32,000  Level Indianapolis Center
06:38PM 39.0108 -84.4433 327° Northwest 408 470 32,000  Level Indianapolis Center
06:39PM 39.1275 -84.5367 328° Northwest 410 472 32,000 -480 Level Indianapolis Center
06:40PM 39.2269 -84.6183 328° Northwest 418 481 31,100 -1,140 Descending Indianapolis Center
06:41PM 39.3275 -84.7011 328° Northwest 423 487 29,700 -1,320 Descending Indianapolis Center
06:42PM 39.4317 -84.7867 328° Northwest 433 498 28,400 -840 Descending Indianapolis Center
06:43PM 39.5342 -84.8706 328° Northwest 436 502 28,000 -240 Descending Indianapolis Center
06:44PM 39.6331 -84.9522 328° Northwest 432 497 28,000  Level Indianapolis Center
06:45PM 39.7519 -85.0514 327° Northwest 427 491 28,000  Level Indianapolis Center
06:46PM 39.8506 -85.1331 328° Northwest 424 488 28,000 -480 Level Indianapolis Center
06:47PM 39.9478 -85.2139 327° Northwest 419 482 27,100 -1,020 Descending Indianapolis Center
06:48PM 40.0444 -85.2964 327° Northwest 418 481 26,000 -540 Descending Indianapolis Center
06:49PM 40.1419 -85.3789 327° Northwest 419 482 26,000  Level Indianapolis Center
06:51PM 40.2369 -85.5131 313° West 421 484 26,000 -360 Level Indianapolis Center
06:52PM 40.3164 -85.6267 313° West 425 489 25,300 -1,020 Descending Indianapolis Center
06:53PM 40.3933 -85.7392 312° West 420 483 24,000 -660 Descending Indianapolis Center
06:54PM 40.4692 -85.8500 312° West 413 475 24,000  Level Indianapolis Center
06:55PM 40.5444 -85.9600 312° West 409 471 24,000  Level Indianapolis Center
06:56PM 40.6347 -86.0939 312° West 408 470 24,000  Level Indianapolis Center
06:57PM 40.7103 -86.2058 312° West 410 472 24,000 -300 Level Indianapolis Center
06:58PM 40.7856 -86.3167 312° West 409 471 23,500 -1,260 Descending Indianapolis Center
06:59PM 40.8600 -86.4281 311° West 407 468 21,500 -1,920 Descending Indianapolis Center
07:00PM 40.9331 -86.5344 312° West 397 457 19,600 -1,980 Descending Indianapolis Center
07:01PM 41.0183 -86.6644 311° West 393 452 17,500 -1,860 Descending Indianapolis Center
07:02PM 41.0881 -86.7731 310° West 391 450 15,800 -1,620 Descending Indianapolis Center
07:03PM 41.1561 -86.8769 311° West 383 441 14,200 -1,560 Descending Indianapolis Center
07:04PM 41.2242 -86.9764 312° West 372 428 12,600 -1,560 Descending Indianapolis Center
07:05PM 41.2908 -87.0797 311° West 369 425 11,000 -720 Descending Indianapolis Center
07:06PM 41.3811 -87.2142 312° West 367 422 11,000  Level Chicago Center
07:07PM 41.4700 -87.3186 319° Northwest 360 414 11,000 -360 Level Chicago Center
07:08PM 41.5431 -87.4033 319° Northwest 353 406 10,300 -540 Descending Chicago Center
07:09PM 41.6200 -87.4869 321° Northwest 358 412 9,900 -180 Descending Chicago Center
07:10PM 41.6972 -87.5739 320° Northwest 364 419 10,000 -120 Climbing Chicago Center
07:11PM 41.7689 -87.6553 320° Northwest 349 402 9,700 -1,020 Descending Chicago Center
07:13PM 41.8061 -87.7567 296° West 270 311 8,000 -1,380 Descending Chicago Center
07:14PM 41.8058 -87.8522 270° West 260 299 6,900 -660 Descending Chicago Center
07:15PM 41.7969 -87.9242 261° West 217 250 6,700 -960 Descending Chicago Center
07:16PM 41.8144 -87.9814 292° West 211 243 5,000 -1,740 Descending Chicago Center
07:17PM 41.8742 -87.9922 352° North 202 232 3,100 -1,620 Descending Chicago Center
07:18PM 41.9167 -87.9500 36° Northeast 170 196 1,900 -1,020 Descending Chicago TRACON
07:19PM 41.9333 -87.9167 56° Northeast 136 157 1,200 -720 Descending Chicago TRACON